createdAt,value
2023-05-06T00:00:34.692Z,28.15
2023-05-06T00:01:34.685Z,27.64
2023-05-06T00:02:34.839Z,28.02
2023-05-06T00:03:34.833Z,28.17
2023-05-06T00:04:34.690Z,28.23
2023-05-06T00:05:34.681Z,28.46
2023-05-06T00:06:34.632Z,28.55
2023-05-06T00:07:34.613Z,28.51
2023-05-06T00:08:34.687Z,28.77
2023-05-06T00:09:34.630Z,28.97
2023-05-06T00:10:34.603Z,29.05
2023-05-06T00:11:34.641Z,29.19
2023-05-06T00:12:34.588Z,29.57
2023-05-06T00:13:34.583Z,29.63
2023-05-06T00:14:34.579Z,29.76
2023-05-06T00:15:34.552Z,29.97
2023-05-06T00:16:34.570Z,30.00
2023-05-06T00:17:34.578Z,30.02
2023-05-06T00:18:34.512Z,30.00
2023-05-06T00:19:34.508Z,30.04
2023-05-06T00:20:34.481Z,29.97
2023-05-06T00:21:34.498Z,30.06
2023-05-06T00:22:34.498Z,30.08
2023-05-06T00:23:34.459Z,29.89
2023-05-06T00:24:34.467Z,29.61
2023-05-06T00:25:34.443Z,29.57
2023-05-06T00:26:34.426Z,29.53
2023-05-06T00:27:34.448Z,29.17
2023-05-06T00:28:34.434Z,28.93
2023-05-06T00:29:34.394Z,28.34
2023-05-06T00:30:34.425Z,28.23
2023-05-06T00:31:34.457Z,28.32
2023-05-06T00:32:34.409Z,28.02
2023-05-06T00:33:34.427Z,27.48
2023-05-06T00:34:34.347Z,27.62
2023-05-06T00:35:34.350Z,27.50
2023-05-06T00:36:34.339Z,27.21
2023-05-06T00:37:34.333Z,26.82
2023-05-06T00:38:34.302Z,26.75
2023-05-06T00:39:34.389Z,26.53
2023-05-06T00:40:34.319Z,26.13
2023-05-06T00:41:34.291Z,25.97
2023-05-06T00:42:34.278Z,25.71
2023-05-06T00:43:34.258Z,25.94
2023-05-06T00:44:34.274Z,25.84
2023-05-06T00:45:34.337Z,25.75
2023-05-06T00:46:34.260Z,25.67
2023-05-06T00:47:34.263Z,25.27
2023-05-06T00:48:34.212Z,25.43
2023-05-06T00:49:34.202Z,25.11
2023-05-06T00:50:34.242Z,25.31
2023-05-06T00:51:34.176Z,25.08
2023-05-06T00:52:34.169Z,24.88
2023-05-06T00:53:34.200Z,24.79
2023-05-06T00:54:34.157Z,24.62
2023-05-06T00:55:34.143Z,24.52
2023-05-06T00:56:34.133Z,24.43
2023-05-06T00:57:34.117Z,24.30
2023-05-06T00:58:34.120Z,24.16
2023-05-06T00:59:34.120Z,24.06
2023-05-06T01:00:34.082Z,23.98
2023-05-06T01:01:34.150Z,23.73
2023-05-06T01:02:43.761Z,23.56
2023-05-06T01:03:34.122Z,23.56
2023-05-06T01:04:34.169Z,23.72
2023-05-06T01:05:34.045Z,23.48
2023-05-06T01:06:34.020Z,23.48
2023-05-06T01:07:34.031Z,23.59
2023-05-06T01:08:34.020Z,23.40
2023-05-06T01:09:34.035Z,23.51
2023-05-06T01:10:33.989Z,23.75
2023-05-06T01:11:33.988Z,23.90
2023-05-06T01:12:34.037Z,24.13
2023-05-06T01:13:33.963Z,24.06
2023-05-06T01:14:33.968Z,24.06
2023-05-06T01:15:33.947Z,23.99
2023-05-06T01:16:33.943Z,23.95
2023-05-06T01:17:33.966Z,23.95
2023-05-06T01:18:33.921Z,23.95
2023-05-06T01:19:33.902Z,24.12
2023-05-06T01:20:33.905Z,24.19
2023-05-06T01:21:33.909Z,23.98
2023-05-06T01:22:33.865Z,23.95
2023-05-06T01:23:34.033Z,23.80
2023-05-06T01:24:33.851Z,23.95
2023-05-06T01:25:33.850Z,24.06
2023-05-06T01:26:33.847Z,24.26
2023-05-06T01:27:33.849Z,24.19
2023-05-06T01:28:33.822Z,24.34
2023-05-06T01:29:33.810Z,24.40
2023-05-06T01:30:33.788Z,24.69
2023-05-06T01:31:33.901Z,24.62
2023-05-06T01:32:33.892Z,24.60
2023-05-06T01:33:33.765Z,24.57
2023-05-06T01:34:33.754Z,24.53
2023-05-06T01:35:33.762Z,24.56
2023-05-06T01:36:33.783Z,24.52
2023-05-06T01:37:33.739Z,24.50
2023-05-06T01:38:33.713Z,24.70
2023-05-06T01:39:33.810Z,24.55
2023-05-06T01:40:33.695Z,24.50
2023-05-06T01:41:33.709Z,24.62
2023-05-06T01:42:33.763Z,24.46
2023-05-06T01:43:33.665Z,24.70
2023-05-06T01:44:33.666Z,24.27
2023-05-06T01:45:33.701Z,24.22
2023-05-06T01:46:33.663Z,24.10
2023-05-06T01:47:33.679Z,23.99
2023-05-06T01:48:33.651Z,24.16
2023-05-06T01:49:33.620Z,23.98
2023-05-06T01:50:33.591Z,24.13
2023-05-06T01:51:33.701Z,23.92
2023-05-06T01:52:33.577Z,23.95
2023-05-06T01:53:33.587Z,23.81
2023-05-06T01:54:33.590Z,23.79
2023-05-06T01:55:33.546Z,23.67
2023-05-06T01:56:33.528Z,23.53
2023-05-06T01:57:33.542Z,23.43
2023-05-06T01:58:33.511Z,23.38
2023-05-06T01:59:33.533Z,23.27
2023-05-06T02:00:33.537Z,23.25
2023-05-06T02:01:33.530Z,23.40
2023-05-06T02:02:33.526Z,23.14
2023-05-06T02:03:33.632Z,23.06
2023-05-06T02:04:33.470Z,23.01
2023-05-06T02:05:33.455Z,23.14
2023-05-06T02:06:33.455Z,23.09
2023-05-06T02:07:33.434Z,22.96
2023-05-06T02:08:33.412Z,23.04
2023-05-06T02:09:33.422Z,23.11
2023-05-06T02:10:33.463Z,23.14
2023-05-06T02:11:33.388Z,23.14
2023-05-06T02:12:33.385Z,23.11
2023-05-06T02:13:33.422Z,23.11
2023-05-06T02:14:33.350Z,23.11
2023-05-06T02:15:33.361Z,23.11
2023-05-06T02:16:33.410Z,23.27
2023-05-06T02:17:33.395Z,23.17
2023-05-06T02:18:33.321Z,23.17
2023-05-06T02:19:33.362Z,23.19
2023-05-06T02:20:33.307Z,23.17
2023-05-06T02:21:33.282Z,23.25
2023-05-06T02:22:33.328Z,23.22
2023-05-06T02:23:33.289Z,23.22
2023-05-06T02:24:33.269Z,23.27
2023-05-06T02:25:33.270Z,23.22
2023-05-06T02:26:33.224Z,23.14
2023-05-06T02:27:33.222Z,23.09
2023-05-06T02:28:33.321Z,23.06
2023-05-06T02:29:33.216Z,23.04
2023-05-06T02:30:33.216Z,23.01
2023-05-06T02:31:33.293Z,22.94
2023-05-06T02:32:33.205Z,22.74
2023-05-06T02:33:33.184Z,22.56
2023-05-06T02:34:33.201Z,22.23
2023-05-06T02:35:33.157Z,22.08
2023-05-06T02:36:33.160Z,22.08
2023-05-06T02:37:33.180Z,22.04
2023-05-06T02:38:33.110Z,22.18
2023-05-06T02:39:33.153Z,22.20
2023-05-06T02:40:33.130Z,22.23
2023-05-06T02:41:33.085Z,22.18
2023-05-06T02:42:33.143Z,22.23
2023-05-06T02:43:33.163Z,22.20
2023-05-06T02:44:33.050Z,22.23
2023-05-06T02:45:33.058Z,22.15
2023-05-06T02:46:33.074Z,22.23
2023-05-06T02:47:33.102Z,22.06
2023-05-06T02:48:33.012Z,22.18
2023-05-06T02:49:33.035Z,22.20
2023-05-06T02:50:32.990Z,22.20
2023-05-06T02:51:33.037Z,22.30
2023-05-06T02:52:33.045Z,22.25
2023-05-06T02:53:32.968Z,22.30
2023-05-06T02:54:32.981Z,22.37
2023-05-06T02:55:33.044Z,22.39
2023-05-06T02:56:32.932Z,22.25
2023-05-06T02:57:32.929Z,22.20
2023-05-06T02:58:32.947Z,22.18
2023-05-06T02:59:32.912Z,22.08
2023-05-06T03:00:32.916Z,22.13
2023-05-06T03:01:33.110Z,21.94
2023-05-06T03:02:33.656Z,21.97
2023-05-06T03:03:32.867Z,21.90
2023-05-06T03:04:33.086Z,22.01
2023-05-06T03:05:32.849Z,22.11
2023-05-06T03:06:32.826Z,22.13
2023-05-06T03:07:32.908Z,22.06
2023-05-06T03:08:32.812Z,21.94
2023-05-06T03:09:32.802Z,21.90
2023-05-06T03:10:32.806Z,21.76
2023-05-06T03:11:32.800Z,21.67
2023-05-06T03:12:32.849Z,21.69
2023-05-06T03:13:32.805Z,21.67
2023-05-06T03:14:32.749Z,21.49
2023-05-06T03:15:32.778Z,21.56
2023-05-06T03:16:32.767Z,21.42
2023-05-06T03:17:32.746Z,21.45
2023-05-06T03:18:32.732Z,21.36
2023-05-06T03:19:32.761Z,21.33
2023-05-06T03:20:32.646Z,21.29
2023-05-06T03:21:32.700Z,21.29
2023-05-06T03:22:32.718Z,21.31
2023-05-06T03:23:32.630Z,21.53
2023-05-06T03:24:32.600Z,21.69
2023-05-06T03:25:32.587Z,21.83
2023-05-06T03:26:32.585Z,21.99
2023-05-06T03:27:32.592Z,22.08
2023-05-06T03:28:32.562Z,22.20
2023-05-06T03:29:32.551Z,22.25
2023-05-06T03:30:32.534Z,22.47
2023-05-06T03:31:32.576Z,22.56
2023-05-06T03:32:32.564Z,22.66
2023-05-06T03:33:32.529Z,22.84
2023-05-06T03:34:32.495Z,23.01
2023-05-06T03:35:32.486Z,22.99
2023-05-06T03:36:32.489Z,23.09
2023-05-06T03:37:32.496Z,23.22
2023-05-06T03:38:32.487Z,23.11
2023-05-06T03:39:32.445Z,23.06
2023-05-06T03:40:32.436Z,23.06
2023-05-06T03:41:32.457Z,22.81
2023-05-06T03:42:32.488Z,22.86
2023-05-06T03:43:32.454Z,22.86
2023-05-06T03:44:32.402Z,22.99
2023-05-06T03:45:32.392Z,23.09
2023-05-06T03:46:32.470Z,23.25
2023-05-06T03:47:32.453Z,23.53
2023-05-06T03:48:32.366Z,23.72
2023-05-06T03:49:32.383Z,23.87
2023-05-06T03:50:32.389Z,24.06
2023-05-06T03:51:32.380Z,24.08
2023-05-06T03:52:32.322Z,24.26
2023-05-06T03:53:32.371Z,24.30
2023-05-06T03:54:32.317Z,24.46
2023-05-06T03:55:32.627Z,24.49
2023-05-06T03:56:32.487Z,24.62
2023-05-06T03:57:32.679Z,24.73
2023-05-06T03:58:32.283Z,24.87
2023-05-06T03:59:32.267Z,25.03
2023-05-06T04:00:32.278Z,25.12
2023-05-06T04:01:32.225Z,25.20
2023-05-06T04:02:32.332Z,25.23
2023-05-06T04:03:32.355Z,25.26
2023-05-06T04:04:32.199Z,25.29
2023-05-06T04:05:32.214Z,25.38
2023-05-06T04:06:32.203Z,25.32
2023-05-06T04:07:32.164Z,25.38
2023-05-06T04:08:32.160Z,25.17
2023-05-06T04:09:32.146Z,25.06
2023-05-06T04:10:32.141Z,24.76
2023-05-06T04:11:32.143Z,24.55
2023-05-06T04:12:32.130Z,24.26
2023-05-06T04:13:32.100Z,24.26
2023-05-06T04:14:32.120Z,24.29
2023-05-06T04:15:32.096Z,24.22
2023-05-06T04:16:32.105Z,24.13
2023-05-06T04:17:32.097Z,24.15
2023-05-06T04:18:32.055Z,24.27
2023-05-06T04:19:32.043Z,24.52
2023-05-06T04:20:32.057Z,24.57
2023-05-06T04:21:32.023Z,24.44
2023-05-06T04:22:32.020Z,24.49
2023-05-06T04:23:32.017Z,24.43
2023-05-06T04:24:31.994Z,24.24
2023-05-06T04:25:31.984Z,24.01
2023-05-06T04:26:31.971Z,23.71
2023-05-06T04:27:31.961Z,23.48
2023-05-06T04:28:31.964Z,23.38
2023-05-06T04:29:31.978Z,22.99
2023-05-06T04:30:31.935Z,22.61
2023-05-06T04:31:32.009Z,22.30
2023-05-06T04:32:31.947Z,21.83
2023-05-06T04:33:31.918Z,21.58
2023-05-06T04:34:31.905Z,21.27
2023-05-06T04:35:31.888Z,21.03
2023-05-06T04:36:31.879Z,20.80
2023-05-06T04:37:31.883Z,20.70
2023-05-06T04:38:31.881Z,20.45
2023-05-06T04:39:31.845Z,20.39
2023-05-06T04:40:31.857Z,20.49
2023-05-06T04:41:31.854Z,20.35
2023-05-06T04:42:31.821Z,20.25
2023-05-06T04:43:31.824Z,20.43
2023-05-06T04:44:31.807Z,20.51
2023-05-06T04:45:31.800Z,20.27
2023-05-06T04:46:31.784Z,20.37
2023-05-06T04:47:31.828Z,20.66
2023-05-06T04:48:31.791Z,20.49
2023-05-06T04:49:31.766Z,20.64
2023-05-06T04:50:31.777Z,20.70
2023-05-06T04:51:31.752Z,20.49
2023-05-06T04:52:31.715Z,20.43
2023-05-06T04:53:31.708Z,20.53
2023-05-06T04:54:31.702Z,20.22
2023-05-06T04:55:31.708Z,20.08
2023-05-06T04:56:31.689Z,19.92
2023-05-06T04:57:31.693Z,19.74
2023-05-06T04:58:31.662Z,19.66
2023-05-06T04:59:31.648Z,19.17
2023-05-06T05:00:31.654Z,18.94
2023-05-06T05:01:31.715Z,19.01
2023-05-06T05:02:31.711Z,19.39
2023-05-06T05:03:31.791Z,19.39
2023-05-06T05:04:31.631Z,19.03
2023-05-06T05:05:31.598Z,19.26
2023-05-06T05:06:31.608Z,19.35
2023-05-06T05:07:31.585Z,19.40
2023-05-06T05:08:31.592Z,19.39
2023-05-06T05:09:31.553Z,19.22
2023-05-06T05:10:31.561Z,19.30
2023-05-06T05:11:31.531Z,19.28
2023-05-06T05:12:31.523Z,19.26
2023-05-06T05:13:31.511Z,19.66
2023-05-06T05:14:31.507Z,19.87
2023-05-06T05:15:31.499Z,19.94
2023-05-06T05:16:31.547Z,20.41
2023-05-06T05:17:31.508Z,20.95
2023-05-06T05:18:31.485Z,21.08
2023-05-06T05:19:31.467Z,20.99
2023-05-06T05:20:31.471Z,21.29
2023-05-06T05:21:31.473Z,21.78
2023-05-06T05:22:31.581Z,22.49
2023-05-06T05:23:31.423Z,22.39
2023-05-06T05:24:31.440Z,22.37
2023-05-06T05:25:31.427Z,22.32
2023-05-06T05:26:31.391Z,22.18
2023-05-06T05:27:31.375Z,21.97
2023-05-06T05:28:31.385Z,22.11
2023-05-06T05:29:31.352Z,22.25
2023-05-06T05:30:31.357Z,22.30
2023-05-06T05:31:31.557Z,22.32
2023-05-06T05:32:31.400Z,22.27
2023-05-06T05:33:31.403Z,21.97
2023-05-06T05:34:31.302Z,22.06
2023-05-06T05:35:31.321Z,21.78
2023-05-06T05:36:31.302Z,21.78
2023-05-06T05:37:31.439Z,21.90
2023-05-06T05:38:31.276Z,22.37
2023-05-06T05:39:31.311Z,22.51
2023-05-06T05:40:31.295Z,22.64
2023-05-06T05:41:31.286Z,23.32
2023-05-06T05:42:31.238Z,23.72
2023-05-06T05:43:31.208Z,24.23
2023-05-06T05:44:31.233Z,24.65
2023-05-06T05:45:31.222Z,24.81
2023-05-06T05:46:31.270Z,25.11
2023-05-06T05:47:31.209Z,25.11
2023-05-06T05:48:31.179Z,25.20
2023-05-06T05:49:31.174Z,25.06
2023-05-06T05:50:31.138Z,24.99
2023-05-06T05:51:31.156Z,25.03
2023-05-06T05:52:31.119Z,25.23
2023-05-06T05:53:31.150Z,24.84
2023-05-06T05:54:31.161Z,24.87
2023-05-06T05:55:31.164Z,25.02
2023-05-06T05:56:31.134Z,25.38
2023-05-06T05:57:31.090Z,25.48
2023-05-06T05:58:31.056Z,25.79
2023-05-06T05:59:31.070Z,27.57
2023-05-06T06:00:31.074Z,30.95
2023-05-06T06:01:31.056Z,33.96
2023-05-06T06:02:31.118Z,36.21
2023-05-06T06:03:31.256Z,38.56
2023-05-06T06:04:31.034Z,42.11
2023-05-06T06:05:30.990Z,44.74
2023-05-06T06:06:31.056Z,47.19
2023-05-06T06:07:30.980Z,50.80
2023-05-06T06:08:30.984Z,53.82
2023-05-06T06:09:30.958Z,55.26
2023-05-06T06:10:30.979Z,57.04
2023-05-06T06:11:30.938Z,58.28
2023-05-06T06:12:30.912Z,60.00
2023-05-06T06:13:31.054Z,60.39
2023-05-06T06:14:30.951Z,61.97
2023-05-06T06:15:30.881Z,62.25
2023-05-06T06:16:30.924Z,63.24
2023-05-06T06:17:30.908Z,64.72
2023-05-06T06:18:30.857Z,64.87
2023-05-06T06:19:30.861Z,63.83
2023-05-06T06:20:30.853Z,63.44
2023-05-06T06:21:30.823Z,64.37
2023-05-06T06:22:30.820Z,66.11
2023-05-06T06:23:30.904Z,70.72
2023-05-06T06:24:30.803Z,73.08
2023-05-06T06:25:30.815Z,75.96
2023-05-06T06:26:30.804Z,77.59
2023-05-06T06:27:30.769Z,81.63
2023-05-06T06:28:30.761Z,85.75
2023-05-06T06:29:30.743Z,89.06
2023-05-06T06:30:30.744Z,91.21
2023-05-06T06:31:30.767Z,93.15
2023-05-06T06:32:30.764Z,93.15
2023-05-06T06:33:30.740Z,91.01
2023-05-06T06:34:30.694Z,92.02
2023-05-06T06:35:30.706Z,93.47
2023-05-06T06:36:30.703Z,96.66
2023-05-06T06:37:30.698Z,102.69
2023-05-06T06:38:30.717Z,107.26
2023-05-06T06:39:30.658Z,107.61
2023-05-06T06:40:30.675Z,115.69
2023-05-06T06:41:30.655Z,120.56
2023-05-06T06:42:30.628Z,122.24
2023-05-06T06:43:30.618Z,122.33
2023-05-06T06:44:30.599Z,123.15
2023-05-06T06:45:30.694Z,122.51
2023-05-06T06:46:30.594Z,119.35
2023-05-06T06:47:30.606Z,122.15
2023-05-06T06:48:30.582Z,124.53
2023-05-06T06:49:30.560Z,126.14
2023-05-06T06:50:30.538Z,130.70
2023-05-06T06:51:30.528Z,135.27
2023-05-06T06:52:30.511Z,142.09
2023-05-06T06:53:30.524Z,150.45
2023-05-06T06:54:30.581Z,156.69
2023-05-06T06:55:30.485Z,156.40
2023-05-06T06:56:30.477Z,158.79
2023-05-06T06:57:30.466Z,166.25
2023-05-06T06:58:30.478Z,164.93
2023-05-06T06:59:30.434Z,167.76
2023-05-06T07:00:30.456Z,173.90
2023-05-06T07:01:30.497Z,177.81
2023-05-06T07:02:30.453Z,180.90
2023-05-06T07:03:30.414Z,184.11
2023-05-06T07:04:30.417Z,184.93
2023-05-06T07:05:30.381Z,193.12
2023-05-06T07:06:30.399Z,200.34
2023-05-06T07:07:30.394Z,202.70
2023-05-06T07:08:30.380Z,202.19
2023-05-06T07:09:30.343Z,198.63
2023-05-06T07:10:30.357Z,199.85
2023-05-06T07:11:30.354Z,202.44
2023-05-06T07:12:30.307Z,207.32
2023-05-06T07:13:30.326Z,213.27
2023-05-06T07:14:30.298Z,206.15
2023-05-06T07:15:30.288Z,205.11
2023-05-06T07:16:30.320Z,199.72
2023-05-06T07:17:30.255Z,199.72
2023-05-06T07:18:30.254Z,196.96
2023-05-06T07:19:30.287Z,202.82
2023-05-06T07:20:30.276Z,217.68
2023-05-06T07:21:30.229Z,235.56
2023-05-06T07:22:30.243Z,239.53
2023-05-06T07:23:32.037Z,261.57
2023-05-06T07:24:30.187Z,287.07
2023-05-06T07:25:30.194Z,299.70
2023-05-06T07:26:30.188Z,304.45
2023-05-06T07:27:30.164Z,300.81
2023-05-06T07:28:30.160Z,328.30
2023-05-06T07:29:30.147Z,331.63
2023-05-06T07:30:30.146Z,329.62
2023-05-06T07:31:30.183Z,325.03
2023-05-06T07:32:30.184Z,330.96
2023-05-06T07:33:30.129Z,334.34
2023-05-06T07:34:30.086Z,351.60
2023-05-06T07:35:30.076Z,373.29
2023-05-06T07:36:30.079Z,383.57
2023-05-06T07:37:30.057Z,373.29
2023-05-06T07:38:30.046Z,382.90
2023-05-06T07:39:30.044Z,406.07
2023-05-06T07:40:30.028Z,434.21
2023-05-06T07:41:30.039Z,441.12
2023-05-06T07:42:30.018Z,425.86
2023-05-06T07:43:30.040Z,398.52
2023-05-06T07:44:30.027Z,420.20
2023-05-06T07:45:30.032Z,451.31
2023-05-06T07:46:30.087Z,449.18
2023-05-06T07:47:30.015Z,449.79
2023-05-06T07:48:30.000Z,425.04
2023-05-06T07:49:29.934Z,375.86
2023-05-06T07:50:29.928Z,344.20
2023-05-06T07:51:29.956Z,326.33
2023-05-06T07:52:29.910Z,330.29
2023-05-06T07:53:29.934Z,337.10
2023-05-06T07:54:29.884Z,366.18
2023-05-06T07:55:29.883Z,426.13
2023-05-06T07:56:29.876Z,467.51
2023-05-06T07:57:30.706Z,517.40
2023-05-06T07:58:29.856Z,547.68
2023-05-06T07:59:29.868Z,563.00
2023-05-06T08:00:29.892Z,546.78
2023-05-06T08:01:29.861Z,564.91
2023-05-06T08:02:29.982Z,577.68
2023-05-06T08:03:30.038Z,587.39
2023-05-06T08:04:29.893Z,607.81
2023-05-06T08:05:29.845Z,624.38
2023-05-06T08:06:29.782Z,615.12
2023-05-06T08:07:29.763Z,606.15
2023-05-06T08:08:30.836Z,616.27
2023-05-06T08:09:29.809Z,669.02
2023-05-06T08:10:29.751Z,700.04
2023-05-06T08:11:29.753Z,733.26
2023-05-06T08:12:29.729Z,753.97
2023-05-06T08:13:29.713Z,759.57
2023-05-06T08:14:29.767Z,759.57
2023-05-06T08:15:29.684Z,734.88
2023-05-06T08:16:29.756Z,725.26
2023-05-06T08:17:29.795Z,721.32
2023-05-06T08:18:29.697Z,734.88
2023-05-06T08:19:29.686Z,760.43
2023-05-06T08:20:29.644Z,768.79
2023-05-06T08:21:29.655Z,808.02
2023-05-06T08:22:29.633Z,853.11
2023-05-06T08:23:29.673Z,873.28
2023-05-06T08:24:29.615Z,902.31
2023-05-06T08:25:29.612Z,879.63
2023-05-06T08:26:29.593Z,909.71
2023-05-06T08:27:29.585Z,897.43
2023-05-06T08:28:29.593Z,898.04
2023-05-06T08:29:29.542Z,883.72
2023-05-06T08:30:29.529Z,899.86
2023-05-06T08:31:29.558Z,859.17
2023-05-06T08:32:29.561Z,863.64
2023-05-06T08:33:29.570Z,877.31
2023-05-06T08:34:29.501Z,864.76
2023-05-06T08:35:29.512Z,834.38
2023-05-06T08:36:29.477Z,825.57
2023-05-06T08:37:29.500Z,799.76
2023-05-06T08:38:29.489Z,711.28
2023-05-06T08:39:29.484Z,653.87
2023-05-06T08:40:29.431Z,615.70
2023-05-06T08:41:29.429Z,641.25
2023-05-06T08:42:29.422Z,698.57
2023-05-06T08:43:29.419Z,723.68
2023-05-06T08:44:29.427Z,731.65
2023-05-06T08:45:29.739Z,740.62
2023-05-06T08:46:29.395Z,726.05
2023-05-06T08:47:29.404Z,713.57
2023-05-06T08:48:29.341Z,662.35
2023-05-06T08:49:29.352Z,648.13
2023-05-06T08:50:29.356Z,630.90
2023-05-06T08:51:29.323Z,646.87
2023-05-06T08:52:29.317Z,657.76
2023-05-06T08:53:29.334Z,710.52
2023-05-06T08:54:29.301Z,792.14
2023-05-06T08:55:29.305Z,875.00
2023-05-06T08:56:29.310Z,897.43
2023-05-06T08:57:29.272Z,906.61
2023-05-06T08:58:29.242Z,867.01
2023-05-06T08:59:29.261Z,899.86
2023-05-06T09:00:29.241Z,930.07
2023-05-06T09:01:29.286Z,910.96
2023-05-06T09:02:29.306Z,909.09
2023-05-06T09:03:29.284Z,924.90
2023-05-06T09:04:29.223Z,928.12
2023-05-06T09:05:29.206Z,936.62
2023-05-06T09:06:29.195Z,922.33
2023-05-06T09:07:29.234Z,848.21
2023-05-06T09:08:29.164Z,787.91
2023-05-06T09:09:29.206Z,751.41
2023-05-06T09:10:29.138Z,727.64
2023-05-06T09:11:29.184Z,734.07
2023-05-06T09:12:29.176Z,745.93
2023-05-06T09:13:29.114Z,798.32
2023-05-06T09:14:29.104Z,808.02
2023-05-06T09:15:29.075Z,911.58
2023-05-06T09:16:29.164Z,984.46
2023-05-06T09:17:29.096Z,1027.82
2023-05-06T09:18:29.044Z,1000.75
2023-05-06T09:19:29.181Z,1003.77
2023-05-06T09:20:29.739Z,978.66
2023-05-06T09:21:29.012Z,937.28
2023-05-06T09:22:29.022Z,974.36
2023-05-06T09:23:29.057Z,1053.05
2023-05-06T09:24:29.069Z,1082.18
2023-05-06T09:25:29.010Z,1036.63
2023-05-06T09:26:29.647Z,968.68
2023-05-06T09:27:28.951Z,991.06
2023-05-06T09:28:28.993Z,1092.85
2023-05-06T09:29:28.997Z,1107.41
2023-05-06T09:30:28.931Z,1049.72
2023-05-06T09:31:29.050Z,1083.06
2023-05-06T09:32:28.991Z,1116.71
2023-05-06T09:33:28.910Z,1117.65
2023-05-06T09:34:28.977Z,1060.61
2023-05-06T09:35:29.140Z,1068.27
2023-05-06T09:36:28.870Z,1121.42
2023-05-06T09:37:28.903Z,1157.53
2023-05-06T09:38:28.842Z,1181.17
2023-05-06T09:39:28.849Z,1222.43
2023-05-06T09:40:28.830Z,1236.06
2023-05-06T09:41:28.817Z,1214.61
2023-05-06T09:42:28.884Z,1206.90
2023-05-06T09:43:28.821Z,1263.06
2023-05-06T09:44:28.791Z,1395.59
2023-05-06T09:45:28.803Z,1497.75
2023-05-06T09:46:28.812Z,1469.61
2023-05-06T09:47:28.880Z,1448.80
2023-05-06T09:48:28.748Z,1411.89
2023-05-06T09:49:28.734Z,1495.22
2023-05-06T09:50:28.756Z,1509.65
2023-05-06T09:51:28.781Z,1511.36
2023-05-06T09:52:28.752Z,1502.82
2023-05-06T09:53:28.823Z,1547.41
2023-05-06T09:54:28.769Z,1566.55
2023-05-06T09:55:28.825Z,1497.75
2023-05-06T09:56:28.714Z,1444.08
2023-05-06T09:57:28.684Z,1453.55
2023-05-06T09:58:28.666Z,1570.25
2023-05-06T09:59:28.705Z,1521.74
2023-05-06T12:36:46.937Z,20.31
2023-05-06T12:37:47.946Z,45.62
2023-05-06T12:38:47.932Z,83.85
2023-05-06T12:39:47.962Z,131.42
2023-05-06T12:41:03.265Z,46.75
2023-05-06T12:42:04.263Z,119.95
2023-05-06T12:43:29.093Z,58.28
2023-05-06T12:44:30.014Z,149.51
2023-05-06T12:45:33.288Z,73.15
2023-05-06T12:46:58.154Z,66.80
2023-05-06T12:47:59.127Z,193.46
2023-05-06T12:48:59.053Z,342.04
2023-05-06T12:50:07.975Z,480.36
2023-05-06T12:50:59.033Z,618.56
2023-05-06T12:51:59.109Z,752.26
2023-05-06T12:52:59.024Z,909.09
2023-05-06T12:53:59.037Z,1025.44
2023-05-06T12:54:59.031Z,1103.73
2023-05-06T12:55:59.023Z,1204.71
2023-05-06T12:56:59.011Z,1254.72
2023-05-06T12:57:59.020Z,1344.79
2023-05-06T12:58:58.993Z,1419.42
2023-05-06T12:59:58.966Z,1451.96
2023-05-06T13:00:59.027Z,1505.38
2023-05-06T13:01:59.162Z,1525.23
2023-05-06T13:02:59.050Z,1559.20
2023-05-06T13:03:58.921Z,1519.13
2023-05-06T13:04:58.939Z,1538.46
2023-05-06T13:05:58.985Z,1613.10
2023-05-06T13:06:58.941Z,1680.35
2023-05-06T13:07:58.920Z,1683.54
2023-05-06T13:08:58.880Z,1765.10
2023-05-06T13:09:58.860Z,1684.61
2023-05-06T13:10:58.863Z,1605.31
2023-05-06T13:11:58.838Z,1565.63
2023-05-06T13:12:58.889Z,1534.03
2023-05-06T13:13:58.851Z,1572.10
2023-05-06T13:14:58.848Z,1581.45
2023-05-06T13:15:58.840Z,1799.73
2023-05-06T13:16:59.176Z,1857.54
2023-05-06T13:17:58.875Z,1792.45
2023-05-06T13:18:59.284Z,1813.22
2023-05-06T13:19:58.821Z,1937.36
2023-05-06T13:20:58.781Z,1977.69
2023-05-06T13:21:58.936Z,1910.92
2023-05-06T13:22:58.794Z,1882.52
2023-05-06T13:23:58.790Z,1741.98
2023-05-06T13:24:58.784Z,1730.64
2023-05-06T13:26:04.668Z,1640.96
2023-05-06T13:26:58.729Z,1710.61
2023-05-06T13:27:58.757Z,1687.82
2023-05-06T13:28:58.790Z,1687.82
2023-05-06T13:29:58.743Z,1728.40
2023-05-06T13:30:58.711Z,1677.18
2023-05-06T13:31:58.719Z,1546.51
2023-05-06T13:32:58.768Z,1601.44
2023-05-06T13:33:58.770Z,1667.71
2023-05-06T13:34:59.213Z,1614.08
2023-05-06T13:35:58.681Z,1558.29
2023-05-06T13:36:58.703Z,1632.90
2023-05-06T13:37:58.668Z,1607.25
2023-05-06T13:38:59.003Z,1558.29
2023-05-06T13:39:58.654Z,1506.23
2023-05-06T13:40:58.630Z,1619.97
2023-05-06T13:41:58.665Z,1652.17
2023-05-06T13:42:58.613Z,1612.12
2023-05-06T13:43:58.634Z,1602.41
2023-05-06T13:44:58.637Z,1653.20
2023-05-06T13:45:58.617Z,1639.95
2023-05-06T13:46:58.658Z,1637.93
2023-05-06T13:47:58.548Z,1637.93
2023-05-06T13:48:58.495Z,1652.17
2023-05-06T13:49:58.576Z,1731.77
2023-05-06T13:50:58.714Z,1727.27
2023-05-06T13:51:58.540Z,1762.76
2023-05-06T13:52:58.548Z,1845.94
2023-05-06T13:53:58.552Z,1838.29
2023-05-06T13:54:58.487Z,1917.81
2023-05-06T13:55:58.484Z,1988.04
2023-05-06T13:56:58.435Z,2039.88
2023-05-06T13:57:58.561Z,2086.27
2023-05-06T13:58:58.390Z,2055.64
2023-05-06T13:59:58.423Z,2083.01
2023-05-06T14:00:58.392Z,2099.45
2023-05-06T14:01:58.377Z,2066.82
2023-05-06T14:02:58.411Z,2159.09
2023-05-06T14:03:58.392Z,2001.50
2023-05-06T14:04:58.397Z,2001.50
2023-05-06T14:05:58.608Z,2065.22
2023-05-06T14:06:58.359Z,2122.91
2023-05-06T14:07:58.349Z,2180.33
2023-05-06T14:08:58.609Z,2126.30
2023-05-06T14:09:58.709Z,2079.75
2023-05-06T14:10:58.459Z,2101.11
2023-05-06T14:11:58.577Z,2057.23
2023-05-06T14:12:58.391Z,1983.59
2023-05-06T14:13:58.250Z,1955.88
2023-05-06T14:14:58.236Z,1844.66
2023-05-06T14:15:58.245Z,1773.33
2023-05-06T14:16:58.242Z,1750.00
2023-05-06T14:17:58.230Z,1696.43
2023-05-06T14:18:58.191Z,1709.51
2023-05-06T14:19:58.178Z,1756.94
2023-05-06T14:20:58.162Z,1835.75
2023-05-06T14:21:58.163Z,1763.93
2023-05-06T14:22:58.192Z,1672.96
2023-05-06T14:23:58.141Z,1609.19
2023-05-06T14:24:58.132Z,1613.10
2023-05-06T14:25:58.136Z,1611.14
2023-05-06T14:26:58.154Z,1618.99
2023-05-06T14:27:58.190Z,1633.91
2023-05-06T14:28:58.108Z,1645.02
2023-05-06T14:29:58.094Z,1671.90
2023-05-06T14:30:58.069Z,1721.68
2023-05-06T14:31:58.113Z,1666.67
2023-05-06T14:32:58.118Z,1633.91
2023-05-06T14:33:58.052Z,1728.40
2023-05-06T14:34:58.035Z,1746.55
2023-05-06T14:35:58.023Z,1634.91
2023-05-06T14:36:58.018Z,1578.64
2023-05-06T14:37:58.016Z,1753.46
2023-05-06T14:38:57.991Z,1784.04
2023-05-06T14:39:57.994Z,1794.87
2023-05-06T14:40:59.446Z,1849.79
2023-05-06T14:41:57.964Z,1976.22
2023-05-06T14:42:57.958Z,1966.00
2023-05-06T14:43:57.971Z,2004.52
2023-05-06T14:44:58.685Z,2071.65
2023-05-06T14:45:57.954Z,2178.54
2023-05-06T14:46:57.936Z,2203.81
2023-05-06T14:47:57.954Z,2087.91
2023-05-06T14:48:57.905Z,2106.10
2023-05-06T14:49:57.885Z,2150.36
2023-05-06T14:50:57.876Z,2356.07
2023-05-06T14:51:58.521Z,2449.35
2023-05-06T14:52:57.880Z,2400.72
2023-05-06T14:53:57.845Z,2305.03
2023-05-06T14:54:57.843Z,2180.33
2023-05-06T14:55:57.832Z,2087.91
2023-05-06T14:56:57.828Z,2141.71
2023-05-06T14:57:57.816Z,2078.12
2023-05-06T14:58:57.792Z,2106.10
2023-05-06T14:59:57.777Z,2102.77
2023-05-06T15:00:57.838Z,2065.22
2023-05-06T15:01:57.760Z,2057.23
2023-05-06T15:02:57.944Z,2200.17
2023-05-06T15:03:57.776Z,2299.05
2023-05-06T15:04:57.769Z,2295.08
2023-05-06T15:05:57.857Z,2331.29
2023-05-06T15:06:57.739Z,2387.79
2023-05-06T15:07:57.720Z,2203.81
2023-05-06T15:08:57.695Z,2119.52
2023-05-06T15:09:58.069Z,2231.54
2023-05-06T15:10:57.690Z,2212.98
2023-05-06T15:11:57.672Z,2157.34
2023-05-06T15:12:57.704Z,1976.22